Time;durP1;ratioP1;P1;durP2;ratioP2;P2;SDS_P1;SDS_P2;PMS_P1;PMS_P2;Temp;Humidity;BMP_temperature;BMP_pressure;BME280_temperature;BME280_humidity;BME280_pressure;Samples;Min_cycle;Max_cycle;Signal;HPM_P1;HPM_P2
2022/06/13 00:00:48;;;;;;;581.97;72.40;;;18.50;99.90;;;17.68;100.00;97562.84;5041192;28;20811;-74
2022/06/13 00:03:15;;;;;;;305.52;53.17;;;18.50;99.90;;;17.74;100.00;97558.22;5041695;28;20408;-75
2022/06/13 00:05:41;;;;;;;106.50;34.47;;;18.60;99.90;;;17.82;100.00;97581.63;5048174;28;20911;-74
2022/06/13 00:08:07;;;;;;;143.00;47.22;;;18.60;99.90;;;18.00;100.00;97598.75;5052185;28;20771;-75
2022/06/13 00:10:36;;;;;;;281.20;66.97;;;18.80;99.90;;;18.00;100.00;97585.38;5051974;28;20942;-74
2022/06/13 00:13:02;;;;;;;133.65;44.03;;;18.70;99.90;;;17.69;100.00;97579.69;5052337;28;20401;-74
2022/06/13 00:15:28;;;;;;;168.35;50.10;;;18.50;99.90;;;17.62;100.00;97563.22;5047032;28;20533;-75
2022/06/13 00:17:54;;;;;;;102.40;40.43;;;18.40;99.90;;;17.47;100.00;97582.16;5023742;28;20785;-74
2022/06/13 00:20:20;;;;;;;417.83;85.75;;;18.30;99.90;;;17.42;100.00;97577.69;5051462;28;20428;-74
2022/06/13 00:22:46;;;;;;;442.75;74.25;;;18.20;99.90;;;17.45;100.00;97578.97;5052233;28;20405;-75
2022/06/13 00:25:13;;;;;;;185.70;54.15;;;18.30;99.90;;;17.45;100.00;97577.09;5050087;28;20409;-74
2022/06/13 00:27:40;;;;;;;820.80;122.10;;;18.30;99.90;;;17.47;100.00;97579.47;5052195;28;20400;-74
2022/06/13 00:30:09;;;;;;;183.80;56.05;;;18.30;99.90;;;17.55;100.00;97568.13;5051224;28;20424;-74
2022/06/13 00:32:35;;;;;;;1315.07;179.32;;;18.30;99.90;;;17.52;100.00;97569.47;5052005;28;20657;-74
2022/06/13 00:35:01;;;;;;;343.05;80.15;;;18.30;99.90;;;17.70;100.00;97562.56;5052022;28;20406;-74
2022/06/13 00:37:28;;;;;;;154.83;54.17;;;18.30;99.90;;;17.50;100.00;97571.69;5047517;28;20459;-74
2022/06/13 00:39:54;;;;;;;254.77;64.18;;;18.20;99.90;;;17.48;100.00;97576.50;5041198;28;20410;-75
2022/06/13 00:42:23;;;;;;;197.52;64.25;;;18.20;99.90;;;17.46;100.00;97570.66;5033869;28;20412;-75
2022/06/13 00:45:26;;;;;;;181.88;57.88;;;18.20;99.90;;;17.44;100.00;97562.13;5042997;28;20404;-74
2022/06/13 00:47:55;;;;;;;208.45;65.88;;;18.20;99.90;;;17.54;100.00;97567.31;5038066;28;20465;-74
2022/06/13 00:50:26;;;;;;;137.40;55.17;;;18.20;99.90;;;17.49;100.00;97551.34;5045670;28;20932;-74
2022/06/13 00:52:58;;;;;;;123.55;51.72;;;18.30;99.90;;;17.60;100.00;97543.94;5043462;28;20645;-74
2022/06/13 00:55:32;;;;;;;178.05;55.90;;;18.30;99.90;;;17.51;100.00;97538.47;5050322;28;20401;-74
2022/06/13 00:58:00;;;;;;;108.28;47.45;;;18.30;99.90;;;17.48;100.00;97528.34;5051667;28;20845;-74
2022/06/13 01:00:29;;;;;;;152.68;54.60;;;18.20;99.90;;;17.55;100.00;97526.09;5040648;28;20395;-74
2022/06/13 01:02:55;;;;;;;162.40;56.33;;;18.30;99.90;;;17.52;100.00;97528.53;5049012;28;20451;-75
2022/06/13 01:05:26;;;;;;;174.77;58.47;;;18.30;99.90;;;17.53;100.00;97533.59;5051242;28;20414;-75
2022/06/13 01:07:54;;;;;;;208.77;60.90;;;18.30;99.90;;;17.53;100.00;97536.28;5051422;28;20488;-75
2022/06/13 01:13:10;;;;;;;139.75;53.92;;;18.40;99.90;;;17.59;100.00;97532.44;5051343;28;20470;-74
2022/06/13 01:16:11;;;;;;;116.90;49.97;;;18.40;99.90;;;17.59;100.00;97540.47;5051097;28;20405;-74
2022/06/13 01:19:11;;;;;;;139.70;53.00;;;18.30;99.90;;;17.55;100.00;97547.50;5042140;28;20415;-74
2022/06/13 01:21:48;;;;;;;119.03;50.73;;;18.40;99.90;;;17.55;100.00;97538.66;5050834;28;20576;-74
2022/06/13 01:24:54;;;;;;;212.00;73.73;;;18.40;99.90;;;17.56;100.00;97534.91;5049971;28;20472;-75
2022/06/13 01:28:17;;;;;;;138.03;56.33;;;18.40;99.90;;;17.53;100.00;97532.81;5051270;28;20406;-75
2022/06/13 01:31:11;;;;;;;115.32;51.70;;;18.30;99.90;;;17.52;100.00;97536.56;4979419;28;20424;-74
2022/06/13 01:34:00;;;;;;;108.60;48.03;;;18.20;99.90;;;17.42;100.00;97541.00;4972890;28;20528;-74
2022/06/13 01:36:36;;;;;;;121.68;53.38;;;18.20;99.90;;;17.45;100.00;97542.28;5026232;28;20403;-74
2022/06/13 01:39:20;;;;;;;110.80;50.50;;;18.20;99.90;;;17.36;100.00;97531.47;5040333;28;20889;-74
2022/06/13 01:42:04;;;;;;;103.65;44.25;;;18.10;99.90;;;17.34;100.00;97527.50;5050568;28;20440;-75
2022/06/13 01:44:40;;;;;;;102.15;46.22;;;18.10;99.90;;;17.25;100.00;97513.19;5050750;28;20405;-75
2022/06/13 01:47:17;;;;;;;142.65;54.67;;;18.00;99.90;;;17.17;100.00;97519.19;5043238;28;21232;-74
2022/06/13 01:49:58;;;;;;;132.70;52.47;;;18.00;99.90;;;17.10;100.00;97516.88;5045920;28;20417;-75
2022/06/13 01:52:36;;;;;;;120.63;51.10;;;17.90;99.90;;;17.11;100.00;97515.00;5050385;28;20393;-75
2022/06/13 01:55:15;;;;;;;122.55;50.67;;;17.90;99.90;;;17.18;100.00;97526.91;5050466;28;20871;-75
2022/06/13 01:57:48;;;;;;;99.45;46.38;;;18.00;99.90;;;17.07;100.00;97530.81;5050498;28;20421;-75
2022/06/13 02:00:20;;;;;;;118.82;51.58;;;17.80;99.90;;;17.23;100.00;97528.72;5049633;28;20405;-75
2022/06/13 02:02:53;;;;;;;93.43;47.00;;;17.90;99.90;;;17.11;100.00;97528.38;5050403;28;20429;-75
2022/06/13 02:05:25;;;;;;;92.97;45.25;;;17.90;99.90;;;17.05;100.00;97535.66;5050356;28;20420;-75
2022/06/13 02:07:58;;;;;;;88.63;45.03;;;17.80;99.90;;;17.05;100.00;97533.00;5042939;28;20402;-75
2022/06/13 02:10:29;;;;;;;89.60;45.57;;;17.80;99.90;;;17.15;100.00;97546.22;5042807;28;20971;-75
2022/06/13 02:13:03;;;;;;;183.43;59.60;;;17.90;99.90;;;17.21;100.00;97560.34;5050054;28;20823;-75
2022/06/13 02:15:35;;;;;;;115.53;48.85;;;17.90;99.90;;;17.19;100.00;97557.94;5050217;28;20401;-75
2022/06/13 02:18:08;;;;;;;96.80;46.25;;;17.80;99.90;;;17.09;100.00;97563.41;5040169;28;20417;-75
2022/06/13 02:20:40;;;;;;;80.57;41.75;;;17.80;99.90;;;17.09;100.00;97566.09;5041407;28;20431;-75
2022/06/13 02:23:11;;;;;;;72.10;38.83;;;17.70;99.90;;;16.96;100.00;97561.47;5041670;28;20397;-75
2022/06/13 02:25:45;;;;;;;74.53;39.60;;;17.70;99.90;;;16.95;100.00;97558.00;5033541;28;20403;-75
2022/06/13 02:28:17;;;;;;;67.60;38.28;;;17.70;99.90;;;16.90;100.00;97555.41;5049425;28;20404;-75
2022/06/13 02:30:50;;;;;;;64.53;35.60;;;17.70;99.90;;;16.96;100.00;97559.59;5049565;28;20421;-75
2022/06/13 02:33:24;;;;;;;68.97;35.90;;;17.60;99.90;;;16.87;100.00;97555.16;5042443;28;20414;-75
2022/06/13 02:35:56;;;;;;;86.40;36.05;;;17.50;99.90;;;16.77;100.00;97558.75;5046898;28;20405;-75
2022/06/13 02:38:26;;;;;;;53.92;32.25;;;17.40;99.90;;;16.69;100.00;97547.91;5049272;28;20401;-75
2022/06/13 02:41:00;;;;;;;76.53;34.43;;;17.40;99.90;;;16.71;100.00;97549.19;5049575;28;20393;-75
2022/06/13 02:43:30;;;;;;;62.42;31.63;;;17.40;99.90;;;16.68;100.00;97544.44;5049871;28;20432;-75
2022/06/13 02:46:00;;;;;;;45.42;27.77;;;17.30;99.90;;;16.57;100.00;97542.94;5049806;28;20738;-75
2022/06/13 02:48:36;;;;;;;45.65;27.40;;;17.30;99.90;;;16.44;100.00;97538.28;5048842;28;20390;-75
2022/06/13 02:51:11;;;;;;;40.88;26.20;;;17.30;99.90;;;16.42;100.00;97541.22;5041078;28;20905;-75
2022/06/13 02:53:46;;;;;;;43.75;24.50;;;17.20;99.90;;;16.41;100.00;97549.53;5041430;28;20397;-75
2022/06/13 02:56:22;;;;;;;42.03;24.17;;;17.10;99.90;;;16.30;100.00;97546.19;5049678;28;20397;-75
2022/06/13 02:59:06;;;;;;;45.90;24.67;;;17.00;99.90;;;16.26;100.00;97553.97;5049173;28;20455;-75
2022/06/13 03:01:39;;;;;;;37.72;22.60;;;16.90;99.90;;;16.17;100.00;97555.66;5049531;28;20401;-76
2022/06/13 03:04:15;;;;;;;37.17;21.75;;;16.90;99.90;;;16.10;100.00;97555.19;5049826;28;20393;-75
2022/06/13 03:06:54;;;;;;;36.17;20.65;;;16.80;99.90;;;16.06;100.00;97548.03;5033703;28;20410;-76
2022/06/13 03:09:27;;;;;;;39.10;21.65;;;16.80;99.90;;;16.01;100.00;97556.91;5029995;28;20466;-76
2022/06/13 03:12:04;;;;;;;33.43;20.97;;;16.70;99.90;;;16.00;100.00;97549.16;5038355;28;20432;-76
2022/06/13 03:14:54;;;;;;;32.03;19.42;;;16.70;99.90;;;15.98;100.00;97553.97;5049457;28;20405;-76
2022/06/13 03:17:32;;;;;;;32.88;18.92;;;16.70;99.90;;;15.90;100.00;97552.72;5031941;28;20480;-76
2022/06/13 03:20:08;;;;;;;33.00;20.23;;;16.70;99.90;;;15.89;100.00;97553.78;5040424;28;20496;-76
2022/06/13 03:22:42;;;;;;;33.27;20.07;;;16.70;99.90;;;15.87;100.00;97556.72;5049387;28;20917;-76
2022/06/13 03:25:13;;;;;;;36.47;21.83;;;16.60;99.90;;;15.83;100.00;97549.56;5049370;28;20436;-76
2022/06/13 03:27:45;;;;;;;30.08;19.95;;;16.70;99.90;;;15.80;100.00;97550.13;5049474;28;20408;-76
2022/06/13 03:30:16;;;;;;;35.93;20.20;;;16.70;99.90;;;15.74;100.00;97551.25;5048543;28;21027;-76
2022/06/13 03:33:39;;;;;;;32.08;18.77;;;16.60;99.90;;;15.65;100.00;97560.91;5049268;28;20488;-76
2022/06/13 03:35:38;;;;;;;39.85;19.85;;;16.50;99.90;;;15.56;100.00;97555.41;5049167;28;20437;-76
2022/06/13 03:38:08;;;;;;;30.45;17.52;;;16.40;99.90;;;15.54;100.00;97559.41;5048768;28;20401;-75
2022/06/13 03:40:40;;;;;;;30.90;18.63;;;16.30;99.90;;;15.41;100.00;97564.25;5047671;28;20493;-76
2022/06/13 03:43:16;;;;;;;32.45;16.30;;;16.20;99.90;;;15.33;100.00;97561.41;5049191;28;20878;-76
2022/06/13 03:45:48;;;;;;;37.05;18.58;;;16.10;99.90;;;15.26;100.00;97564.34;5049246;28;20412;-76
2022/06/13 03:48:19;;;;;;;29.70;17.70;;;16.10;99.90;;;15.29;100.00;97566.47;5036563;28;20417;-76
2022/06/13 03:50:51;;;;;;;29.10;18.53;;;16.10;99.90;;;15.32;100.00;97573.16;5036992;28;20769;-76
2022/06/13 03:53:23;;;;;;;31.10;18.88;;;16.10;99.90;;;15.32;100.00;97579.28;5029714;28;20399;-76
2022/06/13 03:55:55;;;;;;;33.20;18.93;;;16.10;99.90;;;15.36;100.00;97579.50;5045884;28;20500;-75
2022/06/13 03:58:32;;;;;;;28.83;17.33;;;16.20;99.90;;;15.35;100.00;97569.91;5048596;28;20484;-76
2022/06/13 04:01:05;;;;;;;32.42;17.67;;;16.20;99.90;;;15.38;100.00;97569.38;5044827;28;20465;-75
2022/06/13 04:03:32;;;;;;;28.27;16.33;;;16.20;99.90;;;15.36;100.00;97572.31;5044426;28;20409;-75
2022/06/13 04:06:03;;;;;;;30.70;15.25;;;16.20;99.90;;;15.34;100.00;97565.66;5052495;28;20446;-75
2022/06/13 04:08:33;;;;;;;29.98;16.40;;;16.10;99.90;;;15.31;100.00;97566.22;5052065;28;20402;-77
2022/06/13 04:11:16;;;;;;;28.77;16.17;;;16.10;99.90;;;15.30;100.00;97559.28;5052038;28;20591;-75
2022/06/13 04:14:01;;;;;;;29.60;15.75;;;16.10;99.90;;;15.30;100.00;97560.09;5052688;28;20410;-76
2022/06/13 04:16:41;;;;;;;27.75;13.13;;;16.10;99.90;;;15.25;100.00;97562.78;5047047;28;20405;-76
2022/06/13 04:19:45;;;;;;;30.85;14.40;;;16.00;99.90;;;15.22;100.00;97566.00;5043300;28;20822;-76
2022/06/13 04:22:22;;;;;;;27.95;15.57;;;16.00;99.90;;;15.24;100.00;97563.06;5052200;28;20420;-76
2022/06/13 04:24:58;;;;;;;29.25;15.30;;;16.00;99.90;;;15.23;100.00;97572.94;5052303;28;20874;-77
2022/06/13 04:27:31;;;;;;;25.80;13.07;;;16.10;99.90;;;15.21;100.00;97569.72;5052834;28;20447;-77
2022/06/13 04:30:09;;;;;;;29.17;14.77;;;16.00;99.90;;;15.17;100.00;97576.72;5051676;28;20511;-76
2022/06/13 04:32:42;;;;;;;25.63;11.88;;;16.00;99.90;;;15.18;100.00;97572.97;5050832;28;20775;-76
2022/06/13 04:35:09;;;;;;;27.07;12.03;;;15.90;99.90;;;15.18;100.00;97577.50;5052169;28;20428;-76
2022/06/13 04:37:37;;;;;;;28.35;13.35;;;15.90;99.90;;;15.16;100.00;97580.44;5052257;28;20451;-76
2022/06/13 04:40:08;;;;;;;27.30;14.13;;;15.90;99.90;;;15.17;100.00;97584.72;5051344;28;20394;-76
2022/06/13 04:42:38;;;;;;;26.48;13.25;;;15.90;99.90;;;15.17;100.00;97595.38;5040825;28;20444;-76
2022/06/13 04:45:14;;;;;;;25.10;11.35;;;16.00;99.90;;;15.13;100.00;97586.31;5038757;28;20493;-76
2022/06/13 04:47:40;;;;;;;29.77;12.88;;;15.90;99.90;;;15.16;100.00;97590.31;5032627;28;20403;-74
2022/06/13 04:50:12;;;;;;;24.75;10.73;;;16.00;99.90;;;15.11;100.00;97599.91;5030665;28;20419;-74
2022/06/13 04:52:44;;;;;;;28.15;12.25;;;15.90;99.90;;;15.05;99.78;97589.53;5031684;28;20406;-74
2022/06/13 04:55:16;;;;;;;28.58;10.80;;;15.80;99.90;;;15.07;100.00;97598.88;5031420;28;20445;-74
2022/06/13 04:57:42;;;;;;;22.73;11.07;;;15.90;99.90;;;15.14;100.00;97601.25;5031574;28;20761;-77
2022/06/13 05:00:11;;;;;;;23.95;12.27;;;15.90;99.90;;;15.22;100.00;97608.66;5030613;28;20414;-77
2022/06/13 05:02:41;;;;;;;23.65;12.45;;;16.00;99.90;;;15.32;100.00;97613.94;5031237;28;20418;-74
2022/06/13 05:05:31;;;;;;;26.48;10.80;;;16.10;99.90;;;15.40;100.00;97617.91;5031257;28;20815;-75
2022/06/13 05:07:59;;;;;;;25.55;13.02;;;16.20;99.90;;;15.51;100.00;97614.09;5029616;28;20441;-77
2022/06/13 05:10:31;;;;;;;29.58;11.38;;;16.30;99.90;;;15.58;100.00;97629.81;5030418;28;20426;-74
2022/06/13 05:12:58;;;;;;;25.13;11.27;;;16.40;99.90;;;15.65;100.00;97630.31;5030940;28;20397;-77
2022/06/13 05:15:29;;;;;;;25.55;11.23;;;16.40;99.90;;;15.67;100.00;97636.16;5023120;28;20914;-75
2022/06/13 05:18:32;;;;;;;26.20;10.15;;;16.40;99.90;;;15.66;100.00;97640.72;5028386;28;20746;-77
2022/06/13 05:21:18;;;;;;;19.73;10.87;;;16.40;99.90;;;15.69;100.00;97644.69;4997607;28;20427;-75
2022/06/13 05:24:08;;;;;;;20.92;10.90;;;16.50;99.90;;;15.71;100.00;97646.00;5030018;28;20407;-76
2022/06/13 05:26:34;;;;;;;22.98;10.07;;;16.50;99.90;;;15.73;100.00;97648.41;5029967;28;20411;-76
2022/06/13 05:29:00;;;;;;;20.80;11.15;;;16.50;99.90;;;15.76;100.00;97656.66;5012232;28;20412;-77
2022/06/13 05:31:28;;;;;;;25.03;9.60;;;16.50;99.90;;;15.70;100.00;97667.66;5048553;22;20421;-76
2022/06/13 05:33:55;;;;;;;23.55;8.43;;;16.50;99.90;;;15.70;100.00;97663.13;5099625;28;20428;-76
2022/06/13 05:36:25;;;;;;;23.05;9.55;;;16.50;99.90;;;15.74;100.00;97668.69;5094628;28;20401;-76
2022/06/13 05:38:55;;;;;;;20.60;9.37;;;16.50;99.90;;;15.72;100.00;97662.81;5105702;28;20396;-77
2022/06/13 05:41:21;;;;;;;21.20;8.20;;;16.50;99.90;;;15.68;99.10;97672.47;5101580;28;20385;-76
2022/06/13 05:43:47;;;;;;;21.57;8.40;;;16.40;99.90;;;15.66;100.00;97672.72;5081461;28;20448;-76
2022/06/13 05:46:21;;;;;;;22.90;8.00;;;16.50;99.90;;;15.65;100.00;97671.13;5079732;28;20890;-76
2022/06/13 05:48:50;;;;;;;18.40;7.70;;;16.40;99.90;;;15.67;100.00;97670.88;5078897;28;20396;-76
2022/06/13 05:51:16;;;;;;;16.85;7.75;;;16.50;99.90;;;15.71;100.00;97678.03;5080566;28;20421;-76
2022/06/13 05:53:42;;;;;;;19.50;7.30;;;16.50;99.90;;;15.71;100.00;97682.59;5088853;28;20394;-76
2022/06/13 05:56:11;;;;;;;15.97;6.50;;;16.50;99.90;;;15.68;96.99;97691.16;5090300;28;20402;-77
2022/06/13 05:58:38;;;;;;;18.67;6.60;;;16.40;99.90;;;15.59;94.66;97690.91;5089077;28;20879;-77
2022/06/13 06:01:05;;;;;;;18.35;6.47;;;16.40;99.90;;;15.61;97.74;97693.31;5090281;28;20775;-77
2022/06/13 06:03:32;;;;;;;14.33;6.20;;;16.40;99.90;;;15.61;100.00;97690.66;5087389;28;20393;-76
2022/06/13 06:06:00;;;;;;;15.77;5.40;;;16.40;99.90;;;15.61;95.68;97698.66;5090053;28;20390;-76
2022/06/13 06:08:30;;;;;;;15.65;5.65;;;16.40;99.90;;;15.63;95.89;97697.31;5089609;28;20455;-75
2022/06/13 06:10:58;;;;;;;16.75;6.50;;;16.40;99.90;;;15.68;98.40;97699.16;5086261;28;20422;-75
2022/06/13 06:13:27;;;;;;;13.15;6.20;;;16.40;99.90;;;15.71;100.00;97707.38;5085003;28;20501;-76
2022/06/13 06:15:55;;;;;;;18.05;5.78;;;16.50;99.90;;;15.75;99.31;97696.97;5090442;28;20474;-76
2022/06/13 06:18:23;;;;;;;15.75;5.70;;;16.50;99.90;;;15.81;100.00;97702.00;5088967;28;20551;-76
2022/06/13 06:20:49;;;;;;;14.10;6.00;;;16.60;99.90;;;15.83;97.98;97715.06;5081396;28;20530;-75
2022/06/13 06:23:16;;;;;;;15.32;6.20;;;16.60;99.90;;;15.86;100.00;97709.97;5089799;28;20394;-76
2022/06/13 06:25:43;;;;;;;12.77;5.10;;;16.60;99.90;;;15.92;100.00;97713.41;5090457;28;21016;-76
2022/06/13 06:28:16;;;;;;;15.07;5.20;;;16.70;99.90;;;15.96;97.82;97719.00;5086581;28;20426;-76
2022/06/13 06:30:44;;;;;;;13.00;5.07;;;16.70;99.90;;;16.00;99.06;97707.50;5076606;28;20412;-76
2022/06/13 06:33:10;;;;;;;14.07;4.57;;;16.70;99.90;;;16.00;98.40;97712.84;5076648;28;20505;-76
2022/06/13 06:35:36;;;;;;;14.68;5.05;;;16.80;99.90;;;16.07;99.02;97713.31;5083241;28;20891;-76
2022/06/13 06:38:02;;;;;;;12.48;4.72;;;16.80;99.90;;;16.07;98.69;97718.66;5081529;28;20413;-77
2022/06/13 06:40:29;;;;;;;10.65;4.50;;;16.80;99.90;;;16.12;97.40;97723.16;5080594;28;20406;-76
2022/06/13 06:42:55;;;;;;;12.90;4.72;;;16.80;99.90;;;16.16;98.87;97722.31;5083012;28;20406;-76
2022/06/13 06:45:23;;;;;;;11.90;4.93;;;16.90;99.90;;;16.16;97.49;97722.31;5074145;28;20412;-77
2022/06/13 06:47:51;;;;;;;12.20;4.38;;;16.90;99.90;;;16.07;94.53;97740.03;5067767;28;20400;-77
2022/06/13 06:50:19;;;;;;;9.90;4.00;;;16.80;99.90;;;16.03;89.00;97722.16;5068200;28;20500;-77
2022/06/13 06:52:45;;;;;;;12.98;4.00;;;16.80;99.90;;;16.03;89.62;97727.47;5069956;28;20793;-77
2022/06/13 07:00:45;;;;;;;9.75;4.63;;;16.80;99.90;;;16.15;97.76;97730.63;5069596;28;20907;-78
2022/06/13 07:03:12;;;;;;;9.33;4.20;;;16.90;99.90;;;16.23;99.36;97735.38;5068368;28;20407;-78
2022/06/13 07:05:39;;;;;;;15.50;4.20;;;16.90;99.90;;;16.17;93.59;97733.78;5069673;28;20474;-78
2022/06/13 07:08:05;;;;;;;11.98;4.53;;;16.90;99.90;;;16.28;95.79;97738.00;5069242;28;20387;-77
2022/06/13 07:10:31;;;;;;;12.43;4.53;;;17.00;99.90;;;16.31;99.88;97736.66;5069293;28;20495;-78
2022/06/13 07:12:57;;;;;;;12.40;4.47;;;17.10;99.90;;;16.27;98.53;97741.75;5069648;28;20865;-78
2022/06/13 07:15:24;;;;;;;9.95;4.45;;;17.00;99.90;;;16.33;96.53;97743.28;5069671;28;20425;-78
2022/06/13 07:17:50;;;;;;;12.95;4.65;;;17.00;99.90;;;16.35;95.93;97735.81;5069670;28;20391;-78
2022/06/13 07:20:17;;;;;;;15.63;4.85;;;17.10;99.90;;;16.32;95.34;97738.22;5068652;28;20524;-79
2022/06/13 07:22:48;;;;;;;11.20;4.65;;;17.10;99.90;;;16.45;99.83;97741.06;5069753;28;20400;-78
2022/06/13 07:25:18;;;;;;;14.23;5.07;;;17.20;99.90;;;16.40;96.70;97745.66;5069513;28;20407;-79
2022/06/13 07:27:46;;;;;;;10.52;4.40;;;17.10;99.90;;;16.45;96.05;97748.28;5071956;28;20412;-78
2022/06/13 07:30:14;;;;;;;13.27;4.72;;;17.20;99.90;;;16.44;93.58;97747.50;5073464;28;21005;-78
2022/06/13 07:32:41;;;;;;;12.57;4.05;;;17.20;99.90;;;16.47;98.86;97746.13;5068719;28;20410;-78
2022/06/13 07:35:09;;;;;;;13.95;5.00;;;17.20;99.90;;;16.52;98.90;97757.59;5070356;28;20988;-76
2022/06/13 07:40:21;;;;;;;12.73;4.45;;;17.30;99.90;;;16.60;97.33;97754.34;5070411;28;20438;-78
2022/06/13 07:42:57;;;;;;;14.27;4.50;;;17.30;99.90;;;16.73;99.08;97758.22;5072711;28;20398;-77
2022/06/13 07:45:26;;;;;;;12.18;4.40;;;17.40;99.90;;;16.78;100.00;97774.22;5071894;28;20396;-78
2022/06/13 07:47:53;;;;;;;9.95;4.10;;;17.50;99.90;;;16.67;94.02;97769.25;5073080;28;20408;-78
2022/06/13 07:50:23;;;;;;;14.52;4.18;;;17.40;99.90;;;16.65;88.40;97764.19;5072144;28;20813;-80
2022/06/13 07:52:52;;;;;;;10.60;4.07;;;17.40;99.90;;;16.75;96.16;97766.78;5073061;28;20441;-80
2022/06/13 07:55:19;;;;;;;9.75;4.07;;;17.40;99.90;;;16.83;98.84;97778.75;5072980;28;20395;-80
2022/06/13 07:57:46;;;;;;;14.80;4.90;;;17.50;99.90;;;16.94;99.41;97770.31;5072960;28;20410;-80
2022/06/13 08:00:21;;;;;;;16.55;4.50;;;17.60;99.90;;;16.84;94.32;97773.09;5072029;28;20972;-79
2022/06/13 08:02:47;;;;;;;11.02;4.20;;;17.60;99.90;;;16.89;96.11;97777.59;5072888;28;20399;-79
2022/06/13 08:05:13;;;;;;;11.43;4.35;;;17.70;99.90;;;17.06;98.86;97777.19;5072898;28;20395;-79
2022/06/13 08:07:39;;;;;;;12.47;4.80;;;17.70;99.90;;;17.11;98.66;97780.59;5072430;28;20439;-80
2022/06/13 08:10:08;;;;;;;9.67;4.60;;;17.80;99.90;;;17.23;100.00;97780.19;5072024;28;20420;-80
2022/06/13 08:12:33;;;;;;;9.48;4.63;;;17.90;99.90;;;17.32;100.00;97765.91;5073154;28;20400;-80
2022/06/13 08:14:59;;;;;;;11.40;4.97;;;18.00;99.90;;;17.39;100.00;97776.28;5072951;28;20986;-81
2022/06/13 08:17:25;;;;;;;15.53;4.77;;;18.10;99.90;;;17.36;99.16;97788.38;5072716;28;20404;-80
2022/06/13 08:19:51;;;;;;;10.80;4.25;;;18.10;99.90;;;17.38;97.78;97780.84;5072073;28;20437;-80
2022/06/13 08:22:18;;;;;;;14.52;5.43;;;18.10;99.90;;;17.37;99.47;97794.50;5072337;28;20408;-80
2022/06/13 08:24:44;;;;;;;11.80;5.03;;;18.10;99.90;;;17.54;99.80;97786.00;5072490;28;20491;-80
2022/06/13 08:27:12;;;;;;;12.60;3.83;;;18.20;99.90;;;17.36;88.32;97787.56;5072863;28;20403;-82
2022/06/13 08:29:38;;;;;;;12.07;4.38;;;18.20;99.90;;;17.48;90.67;97793.31;5071993;28;20773;-77
2022/06/13 08:32:05;;;;;;;11.88;4.13;;;18.20;99.90;;;17.51;92.41;97789.28;5071902;28;20421;-79
2022/06/13 08:34:31;;;;;;;9.98;4.50;;;18.20;99.90;;;17.53;94.97;97795.13;5072309;28;20403;-78
2022/06/13 08:36:57;;;;;;;13.43;4.03;;;18.30;99.90;;;17.54;88.46;97796.72;5072379;28;20407;-79
2022/06/13 08:39:24;;;;;;;10.18;4.30;;;18.30;99.90;;;17.75;94.44;97796.22;5071666;28;20453;-80
2022/06/13 08:41:58;;;;;;;13.75;4.18;;;18.40;99.90;;;17.84;95.42;97800.94;5072231;28;20500;-79
2022/06/13 08:44:56;;;;;;;11.65;4.60;;;18.50;99.90;;;17.89;91.70;97790.19;5072398;28;20388;-79
2022/06/13 08:47:32;;;;;;;10.55;4.45;;;18.50;99.90;;;18.04;97.13;97798.78;5071673;28;21015;-79
2022/06/13 08:50:17;;;;;;;13.30;4.90;;;18.60;99.90;;;18.14;97.49;97795.16;5071485;28;20400;-80
2022/06/13 08:52:51;;;;;;;13.60;4.07;;;18.70;99.90;;;17.93;82.46;97809.94;5071986;28;20396;-80
2022/06/13 08:55:27;;;;;;;8.68;4.60;;;18.60;99.90;;;18.01;90.66;97804.72;5071799;28;20486;-80
2022/06/13 08:58:02;;;;;;;12.60;4.30;;;18.70;99.90;;;18.18;92.69;97805.03;5072029;28;20395;-80
2022/06/13 09:00:33;;;;;;;13.23;5.00;;;18.80;99.90;;;18.44;99.47;97807.34;5071510;28;20399;-79
2022/06/13 09:03:06;;;;;;;10.23;4.32;;;19.10;99.90;;;18.85;100.00;97811.00;5071776;28;20392;-79
2022/06/13 09:05:40;;;;;;;11.02;3.85;;;19.40;99.90;;;19.08;100.00;97824.56;5071841;28;20399;-75
2022/06/13 09:08:18;;;;;;;12.65;4.32;;;19.70;99.90;;;19.07;87.13;97826.47;5071109;28;20404;-78
2022/06/13 09:10:51;;;;;;;8.53;3.70;;;19.70;99.90;;;19.25;94.82;97822.91;5071280;28;21039;-78
2022/06/13 09:13:26;;;;;;;12.93;4.55;;;19.90;99.90;;;19.50;96.70;97818.19;5071473;28;20424;-78
2022/06/13 09:16:04;;;;;;;11.53;3.93;;;20.00;99.90;;;19.38;86.55;97817.88;5071449;28;20430;-79
2022/06/13 09:18:39;;;;;;;9.85;4.00;;;20.00;99.90;;;19.62;96.17;97821.97;5070941;28;20400;-78
2022/06/13 09:21:13;;;;;;;12.00;4.00;;;20.20;99.90;;;19.63;89.13;97833.50;5071452;28;20392;-77
2022/06/13 09:23:48;;;;;;;13.00;4.40;;;20.20;99.90;;;19.64;89.67;97827.84;5071376;28;20496;-80
2022/06/13 09:26:19;;;;;;;8.60;4.03;;;20.20;99.90;;;19.76;95.98;97824.66;5071753;28;20404;-78
2022/06/13 09:28:53;;;;;;;7.78;3.67;;;20.30;99.90;;;20.13;100.00;97814.75;5070748;28;20396;-79
2022/06/13 09:31:31;;;;;;;10.43;3.85;;;20.60;99.90;;;20.21;98.52;97827.50;5070789;28;20434;-79
2022/06/13 09:34:06;;;;;;;9.40;3.55;;;20.80;99.90;;;20.18;93.46;97828.09;5071214;28;20408;-79
2022/06/13 09:36:36;;;;;;;8.70;3.23;;;20.70;99.90;;;19.96;92.49;97829.63;5071104;28;20407;-79
2022/06/13 09:39:05;;;;;;;7.07;3.40;;;20.70;99.90;;;20.08;94.02;97829.88;5070363;28;20893;-80
2022/06/13 09:42:10;;;;;;;11.98;4.32;;;20.60;99.90;;;20.15;94.01;97813.34;5070806;28;20388;-80
2022/06/13 09:45:02;;;;;;;8.80;3.35;;;20.70;99.90;;;20.39;99.06;97807.75;5070981;28;20440;-78
2022/06/13 09:47:38;;;;;;;12.25;3.83;;;20.90;99.90;;;20.36;85.88;97819.13;5071134;28;20403;-79
2022/06/13 09:50:16;;;;;;;11.85;3.25;;;20.90;99.90;;;20.24;72.75;97816.91;5085823;28;20400;-82
2022/06/13 09:52:53;;;;;;;7.75;3.25;;;20.90;99.90;;;20.58;91.94;97826.41;5086697;28;20408;-80
2022/06/13 09:55:32;;;;;;;9.30;3.90;;;21.10;99.90;;;20.74;92.96;97820.38;5070166;28;20434;-80
2022/06/13 09:58:12;;;;;;;9.30;3.53;;;21.30;99.90;;;20.47;75.80;97826.66;5069811;28;20416;-79
2022/06/13 10:00:51;;;;;;;7.18;3.10;;;21.10;99.90;;;20.36;83.71;97833.38;5070348;28;20452;-80
2022/06/13 10:03:33;;;;;;;12.85;3.30;;;21.00;99.90;;;20.23;79.14;97823.38;5071191;28;20396;-80
2022/06/13 10:06:07;;;;;;;13.10;3.93;;;20.80;99.90;;;20.36;86.45;97811.84;5070673;28;20419;-79
2022/06/13 10:08:55;;;;;;;7.63;3.22;;;20.90;99.90;;;20.51;90.06;97813.41;5070033;28;20446;-79
2022/06/13 10:11:35;;;;;;;9.88;3.05;;;21.10;99.90;;;20.29;70.45;97816.81;5070251;28;20983;-82
2022/06/13 10:14:37;;;;;;;7.10;2.50;;;21.00;99.90;;;20.20;72.44;97815.16;5070512;28;20442;-79
2022/06/13 10:17:24;;;;;;;9.17;2.73;;;20.90;99.90;;;20.21;76.83;97824.81;5056746;28;20418;-80
2022/06/13 10:20:03;;;;;;;7.78;2.60;;;20.80;99.90;;;20.39;84.57;97813.13;5070021;28;20750;-79
2022/06/13 10:22:37;;;;;;;9.90;3.30;;;20.90;99.90;;;20.45;79.76;97807.31;5070576;28;20392;-79
2022/06/13 10:25:26;;;;;;;8.82;3.10;;;21.00;99.90;;;20.64;80.34;97807.16;5070186;28;20923;-77
2022/06/13 10:28:08;;;;;;;9.30;2.72;;;21.20;99.90;;;20.87;81.41;97813.34;5070444;28;20403;-77
2022/06/13 10:30:45;;;;;;;7.50;2.40;;;21.40;99.90;;;21.08;72.38;97817.09;5069929;28;21015;-79
2022/06/13 10:33:29;;;;;;;6.75;2.78;;;21.60;99.90;;;21.58;78.62;97819.56;5070669;28;20400;-78
2022/06/13 10:36:09;;;;;;;8.52;2.40;;;22.00;99.90;;;22.49;77.65;97824.22;5070207;28;20407;-78
2022/06/13 10:38:57;;;;;;;5.05;1.92;;;23.00;99.90;;;23.12;72.07;97818.16;5069693;28;20406;-79
2022/06/13 10:41:25;;;;;;;6.22;1.90;;;23.80;99.90;;;23.80;57.46;97817.13;5069757;28;20399;-79